createdAt,value
2017-11-26T10:34:20.719Z,6.3
2017-11-26T10:35:30.765Z,6.3
2017-11-26T10:36:40.499Z,6.45
2017-11-26T10:37:50.508Z,6.43
2017-11-26T10:39:00.249Z,6.57
2017-11-26T10:40:09.764Z,6.53
2017-11-26T10:41:19.786Z,6.57
2017-11-26T10:42:29.551Z,6.43
2017-11-26T10:43:39.601Z,6.55
2017-11-26T10:44:49.350Z,6.54
2017-11-26T10:45:59.416Z,6.4
2017-11-26T10:47:09.573Z,6.27
2017-11-26T10:48:19.338Z,6.2
2017-11-26T10:49:29.111Z,6.03
2017-11-26T10:50:39.118Z,5.99
2017-11-26T10:51:49.148Z,6.01
2017-11-26T10:52:58.665Z,6.03
2017-11-26T10:54:08.465Z,6.08
2017-11-26T10:55:17.977Z,6.27
2017-11-26T10:56:27.713Z,6.27
2017-11-26T10:57:37.181Z,6.27
2017-11-26T10:58:46.938Z,6.32
2017-11-26T10:59:56.971Z,6.28
2017-11-26T11:01:06.719Z,6.27
2017-11-26T11:02:16.748Z,6.35
2017-11-26T11:03:26.499Z,6.3
2017-11-26T11:04:36.240Z,6.33
2017-11-26T11:05:45.987Z,6.27
2017-11-26T11:06:55.452Z,6.32
2017-11-26T11:08:04.937Z,6.4
2017-11-26T11:09:14.964Z,6.4
2017-11-26T11:10:24.436Z,6.35
2017-11-26T11:11:33.902Z,6.25
2017-11-26T11:12:43.906Z,6.43
2017-11-26T11:13:53.921Z,6.46
2017-11-26T11:15:03.927Z,6.4
2017-11-26T11:16:13.393Z,6.46
2017-11-26T11:17:23.137Z,6.46
2017-11-26T11:18:33.163Z,6.43
2017-11-26T11:19:42.905Z,6.32
2017-11-26T11:20:52.960Z,6.43
2017-11-26T11:22:02.726Z,6.28
2017-11-26T11:23:12.192Z,6.42
2017-11-26T11:24:21.657Z,6.46
2017-11-26T11:25:30.856Z,6.36
2017-11-26T11:26:40.868Z,6.42
2017-11-26T11:27:51.029Z,6.6
2017-11-26T11:29:00.643Z,6.54
2017-11-26T11:30:10.670Z,6.64
2017-11-26T11:31:20.726Z,6.4
2017-11-26T11:32:30.468Z,6.54
2017-11-26T11:33:40.244Z,6.68
2017-11-26T11:34:50.278Z,6.71
2017-11-26T11:35:59.749Z,6.55
2017-11-26T11:37:08.954Z,6.54
2017-11-26T11:38:18.963Z,6.55
2017-11-26T11:39:28.983Z,6.63
2017-11-26T11:40:38.729Z,6.61
2017-11-26T11:41:48.469Z,6.63
2017-11-26T11:42:58.474Z,6.75
2017-11-26T11:44:08.536Z,6.69
2017-11-26T11:45:18.575Z,6.82
2017-11-26T11:46:28.342Z,6.99
2017-11-26T11:47:38.363Z,6.91
2017-11-26T11:48:48.425Z,6.93
2017-11-26T11:49:58.164Z,6.9
2017-11-26T11:51:07.644Z,6.76
2017-11-26T11:52:17.658Z,6.69
2017-11-26T11:53:27.413Z,6.72
2017-11-26T11:54:37.423Z,6.64
2017-11-26T11:55:47.844Z,6.61
2017-11-26T11:56:57.336Z,6.76
2017-11-26T11:58:07.361Z,6.94
2017-11-26T11:59:17.105Z,6.94
2017-11-26T12:00:26.852Z,6.9
2017-11-26T12:01:36.339Z,6.93
2017-11-26T12:02:45.816Z,6.97
2017-11-26T12:03:55.550Z,6.9
2017-11-26T12:05:05.567Z,6.97
2017-11-26T12:06:15.034Z,6.9
2017-11-26T12:07:24.507Z,6.78
2017-11-26T12:08:34.525Z,6.78
2017-11-26T12:09:44.538Z,6.93
2017-11-26T12:10:53.751Z,6.94
2017-11-26T12:12:03.487Z,7.04
2017-11-26T12:13:13.246Z,7.08
2017-11-26T12:14:23.257Z,7.09
2017-11-26T12:15:33.011Z,7.04
2017-11-26T12:16:42.577Z,6.97
2017-11-26T12:17:52.699Z,6.91
2017-11-26T12:19:02.435Z,7.08
2017-11-26T12:20:12.181Z,7.18
2017-11-26T12:21:21.656Z,7.08
2017-11-26T12:22:31.163Z,7.04
2017-11-26T12:23:41.220Z,6.86
2017-11-26T12:24:50.709Z,6.9
2017-11-26T12:26:00.777Z,6.79
2017-11-26T12:27:10.530Z,6.63
2017-11-26T12:28:20.317Z,6.61
2017-11-26T12:29:30.060Z,6.55
2017-11-26T12:30:39.823Z,6.43
2017-11-26T12:31:49.594Z,6.57
2017-11-26T12:32:59.606Z,6.55
2017-11-26T12:34:09.662Z,6.63
2017-11-26T12:35:19.690Z,6.64
2017-11-26T12:36:29.817Z,6.71
2017-11-26T12:37:39.558Z,6.63
2017-11-26T12:38:49.298Z,6.63
2017-11-26T12:39:59.324Z,6.71
2017-11-26T12:41:09.343Z,6.93
2017-11-26T12:42:19.079Z,6.96
2017-11-26T12:43:29.081Z,7.07
2017-11-26T12:44:38.549Z,7.16
2017-11-26T12:45:48.317Z,6.99
2017-11-26T12:46:58.345Z,7.08
2017-11-26T12:48:08.358Z,7.15
2017-11-26T12:49:18.103Z,7.23
2017-11-26T12:50:28.113Z,7.16
2017-11-26T12:51:37.576Z,7.18
2017-11-26T12:52:47.590Z,7.11
2017-11-26T12:53:57.331Z,7.16
2017-11-26T12:55:06.798Z,7.37
2017-11-26T12:56:16.823Z,7.39
2017-11-26T12:57:26.564Z,7.27
2017-11-26T12:58:36.591Z,7.08
2017-11-26T12:59:46.405Z,7
2017-11-26T13:00:56.481Z,6.91
2017-11-26T13:02:06.221Z,6.89
2017-11-26T13:03:15.989Z,6.91
2017-11-26T13:04:26.001Z,7.01
2017-11-26T13:05:35.802Z,7.01
2017-11-26T13:06:45.826Z,7
2017-11-26T13:07:55.603Z,7.01
2017-11-26T13:09:05.433Z,7.12
2017-11-26T13:10:14.902Z,7.07
2017-11-26T13:11:24.480Z,7.14
2017-11-26T13:12:34.241Z,7.05
2017-11-26T13:13:44.269Z,6.99
2017-11-26T13:14:54.278Z,6.9
2017-11-26T13:16:04.020Z,6.9
2017-11-26T13:17:13.782Z,6.89
2017-11-26T13:18:23.806Z,6.81
2017-11-26T13:19:33.824Z,6.82
2017-11-26T13:20:43.570Z,6.71
2017-11-26T13:21:53.855Z,6.69
2017-11-26T13:23:03.320Z,6.68
2017-11-26T13:24:13.367Z,6.65
2017-11-26T13:25:23.540Z,6.72
2017-11-26T13:26:33.286Z,6.63
2017-11-26T13:27:43.438Z,6.76
2017-11-26T13:28:53.466Z,6.89
2017-11-26T13:30:03.472Z,6.93
2017-11-26T13:31:12.682Z,6.9
2017-11-26T13:32:22.433Z,6.87
2017-11-26T13:33:32.203Z,6.99
2017-11-26T13:34:42.225Z,6.87
2017-11-26T13:35:52.230Z,6.9
2017-11-26T13:37:01.974Z,6.93
2017-11-26T13:38:11.444Z,6.83
2017-11-26T13:39:21.195Z,6.93
2017-11-26T13:40:31.206Z,6.81
2017-11-26T13:41:40.964Z,6.89
2017-11-26T13:42:50.977Z,6.87
2017-11-26T13:44:01.328Z,6.91
2017-11-26T13:45:11.361Z,6.91
2017-11-26T13:46:21.392Z,6.9
2017-11-26T13:47:31.430Z,6.96
2017-11-26T13:48:41.271Z,6.93
2017-11-26T13:49:51.277Z,7.04
2017-11-26T13:51:01.017Z,7.07
2017-11-26T13:52:10.808Z,7.08
2017-11-26T13:53:20.579Z,7.16
2017-11-26T13:54:30.038Z,7.26
2017-11-26T13:55:39.789Z,7.34
2017-11-26T13:56:49.533Z,7.34
2017-11-26T13:57:58.833Z,7.26
2017-11-26T13:59:08.313Z,7.33
2017-11-26T14:00:18.327Z,7.37
2017-11-26T14:01:28.058Z,7.47
2017-11-26T14:02:37.798Z,7.34
2017-11-26T14:03:47.618Z,7.33
2017-11-26T14:04:57.769Z,7.29
2017-11-26T14:06:07.536Z,7.29
2017-11-26T14:07:17.289Z,7.3
2017-11-26T14:08:26.495Z,7.36
2017-11-26T14:09:36.567Z,7.32
2017-11-26T14:10:46.101Z,7.33
2017-11-26T14:11:55.896Z,7.32
2017-11-26T14:13:06.024Z,7.34
2017-11-26T14:14:16.065Z,7.34
2017-11-26T14:15:25.535Z,7.45
2017-11-26T14:16:35.329Z,7.36
2017-11-26T14:17:45.360Z,7.32
2017-11-26T14:18:55.116Z,7.32
2017-11-26T14:20:04.875Z,7.27
2017-11-26T14:21:14.666Z,7.34
2017-11-26T14:22:24.477Z,7.47
2017-11-26T14:23:34.493Z,7.48
2017-11-26T14:24:44.506Z,7.5
2017-11-26T14:25:54.266Z,7.52
2017-11-26T14:27:03.475Z,7.54
2017-11-26T14:28:13.217Z,7.6
2017-11-26T14:29:22.956Z,7.55
2017-11-26T14:30:32.440Z,7.45
2017-11-26T14:31:42.178Z,7.42
2017-11-26T14:32:52.198Z,7.42
2017-11-26T14:34:02.204Z,7.34
2017-11-26T14:35:12.237Z,7.3
2017-11-26T14:36:22.258Z,7.37
2017-11-26T14:37:32.279Z,7.3
2017-11-26T14:38:42.029Z,7.32
2017-11-26T14:39:51.506Z,7.29
2017-11-26T14:41:01.281Z,7.19
2017-11-26T14:42:11.026Z,7.24
2017-11-26T14:43:20.537Z,6.99
2017-11-26T14:44:30.558Z,7.05
2017-11-26T14:45:40.666Z,7.07
2017-11-26T14:46:50.698Z,7.04
2017-11-26T14:48:00.891Z,7.15
2017-11-26T14:49:10.380Z,7.01
2017-11-26T14:50:19.614Z,7.14
2017-11-26T14:51:29.780Z,7.14
2017-11-26T14:52:39.290Z,7.07
2017-11-26T14:53:49.378Z,7.08
2017-11-26T14:54:59.490Z,7.08
2017-11-26T14:56:09.283Z,7
2017-11-26T14:57:18.759Z,6.9
2017-11-26T14:58:28.229Z,6.94
2017-11-26T14:59:38.027Z,6.9
2017-11-26T15:00:47.542Z,6.9
2017-11-26T15:01:57.333Z,6.91
2017-11-26T15:03:07.123Z,6.87
2017-11-26T15:04:16.858Z,6.83
2017-11-26T15:05:26.650Z,6.86
2017-11-26T15:06:36.411Z,6.89
2017-11-26T15:07:46.461Z,6.81
2017-11-26T15:08:56.221Z,6.81
2017-11-26T15:10:06.066Z,6.76
2017-11-26T15:11:16.235Z,6.71
2017-11-26T15:12:25.754Z,6.68
2017-11-26T15:13:35.272Z,6.63
2017-11-26T15:14:45.064Z,6.6
2017-11-26T15:15:54.059Z,6.58
2017-11-26T15:17:04.088Z,6.6
2017-11-26T15:18:13.861Z,6.58
2017-11-26T15:19:23.716Z,6.63
2017-11-26T15:20:33.244Z,6.6
2017-11-26T15:21:43.261Z,6.58
2017-11-26T15:22:52.816Z,6.53
2017-11-26T15:24:02.841Z,6.61
2017-11-26T15:25:12.640Z,6.55
2017-11-26T15:26:21.868Z,6.58
2017-11-26T15:27:31.914Z,6.57
2017-11-26T15:28:41.118Z,6.54
2017-11-26T15:29:51.152Z,6.6
2017-11-26T15:31:01.246Z,6.4
2017-11-26T15:32:11.085Z,6.5
2017-11-26T15:33:20.832Z,6.54
2017-11-26T15:34:30.061Z,6.43
2017-11-26T15:35:39.809Z,6.4
2017-11-26T15:36:49.576Z,6.42
2017-11-26T15:37:59.358Z,6.46
2017-11-26T15:39:08.576Z,6.43
2017-11-26T15:40:18.090Z,6.46
2017-11-26T15:41:27.849Z,6.42
2017-11-26T15:42:37.901Z,6.42
2017-11-26T15:43:47.393Z,6.39
2017-11-26T15:44:57.410Z,6.25
2017-11-26T15:46:07.253Z,6.28
2017-11-26T15:47:16.469Z,6.35
2017-11-26T15:48:26.474Z,6.28
2017-11-26T15:49:35.950Z,6.28
2017-11-26T15:50:45.691Z,6.17
2017-11-26T15:51:55.929Z,6.16
2017-11-26T15:53:06.101Z,6.13
2017-11-26T15:54:16.656Z,6.24
2017-11-26T15:55:26.541Z,6.16
2017-11-26T15:56:36.448Z,6.3
2017-11-26T15:57:46.293Z,6.32
2017-11-26T15:58:56.461Z,6.32
2017-11-26T16:00:06.329Z,6.32
2017-11-26T16:01:16.514Z,6.32
2017-11-26T16:02:26.700Z,6.3
2017-11-26T16:03:37.159Z,6.25
2017-11-26T16:04:47.634Z,6.28
2017-11-26T16:05:58.605Z,6.33
2017-11-26T16:07:09.120Z,6.27
2017-11-26T16:08:19.616Z,6.21
2017-11-26T16:09:30.108Z,6.28
2017-11-26T16:10:40.265Z,6.2
2017-11-26T16:11:49.850Z,6.27
2017-11-26T16:12:59.672Z,6.17
2017-11-26T16:14:10.123Z,6.19
2017-11-26T16:15:20.072Z,6.16
2017-11-26T16:16:30.542Z,6.21
2017-11-26T16:17:40.812Z,6.27
2017-11-26T16:18:51.477Z,6.3
2017-11-26T16:20:01.952Z,6.2
2017-11-26T16:21:12.493Z,6.3
2017-11-26T16:22:23.769Z,6.21
2017-11-26T16:23:34.211Z,6.24
2017-11-26T16:24:44.558Z,6.28
2017-11-26T16:25:54.802Z,6.16
2017-11-26T16:27:05.166Z,6.17
2017-11-26T16:28:15.610Z,5.98
2017-11-26T16:29:25.471Z,6.08
2017-11-26T16:30:34.907Z,6.06
2017-11-26T16:31:44.719Z,5.99
2017-11-26T16:32:54.671Z,5.93
2017-11-26T16:34:04.129Z,5.95
2017-11-26T16:35:14.801Z,5.85
2017-11-26T16:36:25.394Z,5.83
2017-11-26T16:37:35.577Z,5.8
2017-11-26T16:38:45.738Z,5.74
2017-11-26T16:39:56.268Z,5.8
2017-11-26T16:41:06.829Z,5.75
2017-11-26T16:42:16.681Z,5.75
2017-11-26T16:43:27.498Z,5.66
2017-11-26T16:44:38.055Z,5.69
2017-11-26T16:45:47.812Z,5.67
2017-11-26T16:46:57.672Z,5.66
2017-11-26T16:48:07.808Z,5.6
2017-11-26T16:49:17.964Z,5.63
2017-11-26T16:50:28.472Z,5.67
2017-11-26T16:51:37.913Z,5.69
2017-11-26T16:52:48.369Z,5.78
2017-11-26T16:53:58.359Z,5.75
2017-11-26T16:55:08.198Z,5.75
2017-11-26T16:56:18.319Z,5.75
2017-11-26T16:57:28.519Z,5.75
2017-11-26T16:58:38.527Z,5.77
2017-11-26T16:59:48.434Z,5.75
2017-11-26T17:00:58.674Z,5.8
2017-11-26T17:02:08.471Z,5.74
2017-11-26T17:03:18.431Z,5.83
2017-11-26T17:04:28.799Z,5.83
2017-11-26T17:05:39.138Z,5.81
2017-11-26T17:06:49.177Z,5.8
2017-11-26T17:08:00.227Z,5.85
2017-11-26T17:09:09.944Z,5.74
2017-11-26T17:10:19.669Z,5.84
2017-11-26T17:11:29.474Z,5.78
2017-11-26T17:12:40.050Z,5.81
2017-11-26T17:13:50.279Z,5.85
2017-11-26T17:15:00.100Z,5.85
2017-11-26T17:16:10.286Z,5.85
2017-11-26T17:17:20.367Z,5.84
2017-11-26T17:18:30.895Z,5.8
2017-11-26T17:19:40.614Z,5.81
2017-11-26T17:20:50.792Z,5.88
2017-11-26T17:22:01.267Z,5.84
2017-11-26T17:23:11.358Z,5.9
2017-11-26T17:24:21.196Z,5.83
2017-11-26T17:25:31.385Z,5.87
2017-11-26T17:26:41.815Z,5.73
2017-11-26T17:27:51.711Z,5.78
2017-11-26T17:29:01.894Z,5.74
2017-11-26T17:30:12.179Z,5.78
2017-11-26T17:31:22.655Z,5.74
2017-11-26T17:32:33.496Z,5.75
2017-11-26T17:33:43.669Z,5.7
2017-11-26T17:34:53.651Z,5.66
2017-11-26T17:36:03.839Z,5.74
2017-11-26T17:37:14.331Z,5.59
2017-11-26T17:38:24.466Z,5.65
2017-11-26T17:39:34.698Z,5.62
2017-11-26T17:40:44.922Z,5.6
2017-11-26T17:41:55.360Z,5.47
2017-11-26T17:43:05.159Z,5.51
2017-11-26T17:44:14.971Z,5.47
2017-11-26T17:45:25.485Z,5.45
2017-11-26T17:46:35.803Z,5.38
2017-11-26T17:47:46.993Z,5.33
2017-11-26T17:48:57.136Z,5.33
2017-11-26T17:50:07.338Z,5.2
2017-11-26T17:51:17.792Z,5.32
2017-11-26T17:52:27.873Z,5.23
2017-11-26T17:53:38.466Z,5.23
2017-11-26T17:54:48.268Z,5.24
2017-11-26T17:55:58.637Z,5.23
2017-11-26T17:57:09.223Z,5.26
2017-11-26T17:58:19.785Z,5.23
2017-11-26T17:59:29.934Z,5.22
2017-11-26T18:00:39.949Z,5.22
2017-11-26T18:01:49.809Z,5.2
2017-11-26T18:02:59.785Z,5.22
2017-11-26T18:04:09.906Z,5.24
2017-11-26T18:05:19.943Z,5.23
2017-11-26T18:06:29.679Z,5.24
2017-11-26T18:07:39.174Z,5.22
2017-11-26T18:08:49.198Z,5.22
2017-11-26T18:09:59.216Z,5.23
2017-11-26T18:11:08.955Z,5.2
2017-11-26T18:12:19.040Z,5.24
2017-11-26T18:13:28.913Z,5.23
2017-11-26T18:14:39.138Z,5.15
2017-11-26T18:15:49.252Z,5.24
2017-11-26T18:16:58.759Z,5.23
2017-11-26T18:18:08.277Z,5.23
2017-11-26T18:19:18.145Z,5.23
2017-11-26T18:20:28.272Z,5.24
2017-11-26T18:21:38.173Z,5.33
2017-11-26T18:22:47.982Z,5.3
2017-11-26T18:23:57.728Z,5.41
2017-11-26T18:25:07.500Z,5.32
2017-11-26T18:26:17.637Z,5.35
2017-11-26T18:27:27.684Z,5.33
2017-11-26T18:28:37.689Z,5.3
2017-11-26T18:29:47.426Z,5.33
2017-11-26T18:30:56.941Z,5.41
2017-11-26T18:32:06.976Z,5.42
2017-11-26T18:33:17.030Z,5.45
2017-11-26T18:34:26.269Z,5.45
2017-11-26T18:35:36.054Z,5.4
2017-11-26T18:36:46.130Z,5.48
2017-11-26T18:37:56.039Z,5.49
2017-11-26T18:39:05.848Z,5.45
2017-11-26T18:40:15.871Z,5.51
2017-11-26T18:41:25.390Z,5.42
2017-11-26T18:42:34.865Z,5.48
2017-11-26T18:43:44.396Z,5.47
2017-11-26T18:44:54.454Z,5.45
2017-11-26T18:46:04.477Z,5.47
2017-11-26T18:47:14.526Z,5.4
2017-11-26T18:48:23.994Z,5.37
2017-11-26T18:49:34.010Z,5.3
2017-11-26T18:50:44.024Z,5.41
2017-11-26T18:51:53.772Z,5.32
2017-11-26T18:53:03.251Z,5.26
2017-11-26T18:54:13.312Z,5.22
2017-11-26T18:55:23.074Z,5.22
2017-11-26T18:56:33.109Z,5.22
2017-11-26T18:57:42.729Z,5.2
2017-11-26T18:58:51.958Z,5.17
2017-11-26T19:00:01.448Z,5.19
2017-11-26T19:01:11.468Z,5.2
2017-11-26T19:02:21.497Z,5.11
2017-11-26T19:03:31.516Z,5.15
2017-11-26T19:04:41.549Z,5.12
2017-11-26T19:05:51.347Z,5.14
2017-11-26T19:07:00.834Z,5.05
2017-11-26T19:08:10.835Z,5.11
2017-11-26T19:09:20.617Z,5.05
2017-11-26T19:10:29.851Z,5.12
2017-11-26T19:11:39.878Z,5.02
2017-11-26T19:12:49.639Z,5.08
2017-11-26T19:13:59.397Z,5.02
2017-11-26T19:15:08.894Z,5.05
2017-11-26T19:16:18.690Z,5.06
2017-11-26T19:17:28.155Z,4.99
2017-11-26T19:18:38.227Z,5.02
2017-11-26T19:19:48.273Z,5.05
2017-11-26T19:20:57.486Z,5.05
2017-11-26T19:22:07.313Z,5.01
2017-11-26T19:23:17.134Z,4.9
2017-11-26T19:24:26.665Z,5.05
2017-11-26T19:25:36.761Z,4.99
2017-11-26T19:26:47.176Z,5.06
2017-11-26T19:27:57.322Z,5.02
2017-11-26T19:29:07.153Z,4.99
2017-11-26T19:30:16.922Z,5.02
2017-11-26T19:31:26.426Z,5.01
2017-11-26T19:32:36.178Z,4.99
2017-11-26T19:33:46.213Z,5.02
2017-11-26T19:34:55.908Z,5.09
2017-11-26T19:36:06.036Z,5.05
2017-11-26T19:37:15.306Z,5.06
2017-11-26T19:38:25.180Z,5.01
2017-11-26T19:39:35.396Z,4.96
2017-11-26T19:40:44.934Z,5.01
2017-11-26T19:41:54.702Z,4.96
2017-11-26T19:43:04.148Z,4.91
2017-11-26T19:44:13.989Z,4.9
2017-11-26T19:45:24.050Z,4.9
2017-11-26T19:46:33.918Z,4.99
2017-11-26T19:47:43.457Z,4.8
2017-11-26T19:48:53.558Z,4.83
2017-11-26T19:50:03.661Z,4.87
2017-11-26T19:51:13.216Z,4.88
2017-11-26T19:52:22.702Z,4.83
2017-11-26T19:53:32.492Z,4.86
2017-11-26T19:54:42.263Z,4.84
2017-11-26T19:55:51.794Z,4.74
2017-11-26T19:57:01.614Z,4.83
2017-11-26T19:58:11.192Z,4.69
2017-11-26T19:59:21.033Z,4.67
2017-11-26T20:00:30.793Z,4.68
2017-11-26T20:01:40.933Z,4.65
2017-11-26T20:02:51.018Z,4.64
2017-11-26T20:04:01.152Z,4.65
2017-11-26T20:05:10.442Z,4.67
2017-11-26T20:06:20.497Z,4.65
2017-11-26T20:07:30.315Z,4.65
2017-11-26T20:08:40.367Z,4.62
2017-11-26T20:09:50.407Z,4.65
2017-11-26T20:11:00.500Z,4.68
2017-11-26T20:12:10.848Z,4.56
2017-11-26T20:13:20.937Z,4.54
2017-11-26T20:14:30.741Z,4.67
2017-11-26T20:15:40.819Z,4.65
2017-11-26T20:16:50.882Z,4.65
2017-11-26T20:18:00.715Z,4.71
2017-11-26T20:19:10.580Z,4.72
2017-11-26T20:20:20.170Z,4.69
2017-11-26T20:21:30.028Z,4.79
2017-11-26T20:22:40.333Z,4.75
2017-11-26T20:23:50.472Z,4.8
2017-11-26T20:25:00.483Z,4.86
2017-11-26T20:26:09.973Z,4.96
2017-11-26T20:27:20.099Z,5.01
2017-11-26T20:28:30.667Z,5.02
2017-11-26T20:29:40.777Z,5.02
2017-11-26T20:30:50.851Z,5.06
2017-11-26T20:32:00.697Z,5.12
2017-11-26T20:33:10.759Z,5.17
2017-11-26T20:34:20.510Z,5.09
2017-11-26T20:35:30.121Z,5.19
2017-11-26T20:36:39.880Z,5.06
2017-11-26T20:37:49.697Z,5.19
2017-11-26T20:38:59.240Z,5.22
2017-11-26T20:40:09.266Z,5.12
2017-11-26T20:41:19.003Z,5.17
2017-11-26T20:42:28.777Z,5.09
2017-11-26T20:43:38.521Z,5.05
2017-11-26T20:44:48.258Z,4.99
2017-11-26T20:45:58.278Z,4.93
2017-11-26T20:47:08.333Z,4.8
2017-11-26T20:48:17.859Z,4.86
2017-11-26T20:49:27.618Z,4.83
2017-11-26T20:50:37.750Z,4.8
2017-11-26T20:51:47.519Z,4.75
2017-11-26T20:52:57.410Z,4.77
2017-11-26T20:54:07.205Z,4.74
2017-11-26T20:55:17.278Z,4.68
2017-11-26T20:56:27.390Z,4.67
2017-11-26T20:57:36.798Z,4.67
2017-11-26T20:58:46.850Z,4.64
2017-11-26T20:59:56.630Z,4.68
2017-11-26T21:01:05.846Z,4.67
2017-11-26T21:02:15.862Z,4.59
2017-11-26T21:03:25.958Z,4.64
2017-11-26T21:04:35.524Z,4.61
2017-11-26T21:05:45.124Z,4.57
2017-11-26T21:06:54.861Z,4.57
2017-11-26T21:08:04.353Z,4.56
2017-11-26T21:09:14.111Z,4.49
2017-11-26T21:10:23.854Z,4.56
2017-11-26T21:11:33.962Z,4.61
2017-11-26T21:12:43.736Z,4.56
2017-11-26T21:13:53.310Z,4.5
2017-11-26T21:15:02.807Z,4.5
2017-11-26T21:16:12.840Z,4.47
2017-11-26T21:17:22.319Z,4.49
2017-11-26T21:18:32.394Z,4.5
2017-11-26T21:19:42.154Z,4.53
2017-11-26T21:20:51.953Z,4.5
2017-11-26T21:22:01.712Z,4.47
2017-11-26T21:23:11.217Z,4.49
2017-11-26T21:24:20.953Z,4.43
2017-11-26T21:25:30.995Z,4.43
2017-11-26T21:26:41.018Z,4.47
2017-11-26T21:27:50.765Z,4.47
2017-11-26T21:29:00.570Z,4.43
2017-11-26T21:30:10.373Z,4.42
2017-11-26T21:31:20.192Z,4.46
2017-11-26T21:32:30.074Z,4.44
2017-11-26T21:33:39.843Z,4.47
2017-11-26T21:34:49.880Z,4.47
2017-11-26T21:35:59.855Z,4.44
2017-11-26T21:37:09.668Z,4.51
2017-11-26T21:38:19.429Z,4.51
2017-11-26T21:39:29.235Z,4.62
2017-11-26T21:40:39.002Z,4.61
2017-11-26T21:41:48.759Z,4.61
2017-11-26T21:42:58.532Z,4.67
2017-11-26T21:44:08.558Z,4.71
2017-11-26T21:45:17.753Z,4.67
2017-11-26T21:46:27.775Z,4.71
2017-11-26T21:47:37.827Z,4.67
2017-11-26T21:48:47.305Z,4.71
2017-11-26T21:49:57.157Z,4.72
2017-11-26T21:51:07.193Z,4.79
2017-11-26T21:52:17.064Z,4.88
2017-11-26T21:53:27.124Z,4.79
2017-11-26T21:54:36.936Z,4.8
2017-11-26T21:55:46.962Z,4.77
2017-11-26T21:56:56.972Z,4.88
2017-11-26T21:58:06.769Z,4.86
2017-11-26T21:59:16.585Z,4.8
2017-11-26T22:00:26.648Z,4.87
2017-11-26T22:01:36.687Z,4.94
2017-11-26T22:02:46.149Z,4.9
2017-11-26T22:03:56.006Z,4.93
2017-11-26T22:05:05.768Z,4.97
2017-11-26T22:06:15.820Z,5.06
2017-11-26T22:07:25.894Z,5.08
2017-11-26T22:08:35.505Z,5.05
2017-11-26T22:09:45.356Z,4.94
2017-11-26T22:10:55.385Z,5.08
2017-11-26T22:12:05.238Z,5.11
2017-11-26T22:13:15.001Z,5.08
2017-11-26T22:14:25.078Z,5.17
2017-11-26T22:15:34.822Z,5.19
2017-11-26T22:16:43.750Z,5.23
2017-11-26T22:17:53.871Z,5.22
2017-11-26T22:19:03.888Z,5.22
2017-11-26T22:20:13.759Z,5.19
2017-11-26T22:21:23.765Z,5.19
2017-11-26T22:22:33.526Z,5.08
2017-11-26T22:23:43.536Z,5.2
2017-11-26T22:24:53.032Z,5.12
2017-11-26T22:26:02.795Z,5.12
2017-11-26T22:27:12.284Z,5.12
2017-11-26T22:28:22.049Z,5.14
2017-11-26T22:29:32.068Z,5.15
2017-11-26T22:30:41.560Z,5.05
2017-11-26T22:31:51.570Z,5.06
2017-11-26T22:33:01.452Z,5.01
2017-11-26T22:34:11.205Z,4.96
2017-11-26T22:35:20.973Z,4.91
2017-11-26T22:36:30.489Z,4.93
2017-11-26T22:37:40.255Z,4.93
2017-11-26T22:38:49.987Z,4.86
2017-11-26T22:39:59.745Z,4.86
2017-11-26T22:41:09.544Z,4.79
2017-11-26T22:42:20.171Z,4.84
2017-11-26T22:43:29.654Z,4.86
2017-11-26T22:44:39.489Z,4.84
2017-11-26T22:45:49.542Z,4.87
2017-11-26T22:46:59.244Z,4.88
2017-11-26T22:48:09.127Z,4.79
2017-11-26T22:49:18.994Z,4.8
2017-11-26T22:50:29.069Z,4.87
2017-11-26T22:51:39.115Z,4.93
2017-11-26T22:52:48.863Z,4.99
2017-11-26T22:53:58.721Z,4.93
2017-11-26T22:55:08.562Z,4.93
2017-11-26T22:56:18.581Z,4.9
2017-11-26T22:57:28.635Z,4.99
2017-11-26T22:58:38.135Z,5.04
2017-11-26T22:59:47.703Z,5.02
2017-11-26T23:00:57.232Z,5.01
2017-11-26T23:02:06.992Z,5.06
2017-11-26T23:03:16.927Z,5.05
2017-11-26T23:04:26.759Z,5.05
2017-11-26T23:05:36.247Z,5.01
2017-11-26T23:06:46.102Z,5.01
2017-11-26T23:07:56.130Z,5.01
2017-11-26T23:09:06.239Z,4.94
2017-11-26T23:10:16.307Z,4.84
2017-11-26T23:11:26.128Z,4.8
2017-11-26T23:12:35.941Z,4.83
2017-11-26T23:13:45.435Z,4.86
2017-11-26T23:14:54.915Z,4.77
2017-11-26T23:16:04.959Z,4.79
2017-11-26T23:17:15.011Z,4.79
2017-11-26T23:18:24.858Z,4.75
2017-11-26T23:19:34.725Z,4.71
2017-11-26T23:20:45.043Z,4.83
2017-11-26T23:21:54.799Z,4.72
2017-11-26T23:23:04.865Z,4.77
2017-11-26T23:24:14.357Z,4.74
2017-11-26T23:25:24.474Z,4.79
2017-11-26T23:26:33.985Z,4.74
2017-11-26T23:27:43.823Z,4.68
2017-11-26T23:28:53.868Z,4.75
2017-11-26T23:30:03.902Z,4.75
2017-11-26T23:31:13.965Z,4.77
2017-11-26T23:32:24.268Z,4.77
2017-11-26T23:33:34.158Z,4.84
2017-11-26T23:34:43.719Z,4.74
2017-11-26T23:35:53.777Z,4.84
2017-11-26T23:37:03.546Z,4.74
2017-11-26T23:38:13.553Z,4.84
2017-11-26T23:39:23.615Z,4.87
2017-11-26T23:40:33.394Z,4.86
2017-11-26T23:41:43.148Z,4.88
2017-11-26T23:42:53.193Z,4.83
2017-11-26T23:44:02.936Z,4.74
2017-11-26T23:45:12.987Z,4.68
2017-11-26T23:46:22.822Z,4.68
2017-11-26T23:47:32.615Z,4.61
2017-11-26T23:48:42.766Z,4.57
2017-11-26T23:49:52.514Z,4.54
2017-11-26T23:51:02.354Z,4.56
2017-11-26T23:52:12.428Z,4.47
2017-11-26T23:53:21.962Z,4.47
2017-11-26T23:54:31.448Z,4.44
2017-11-26T23:55:41.478Z,4.47
2017-11-26T23:56:51.234Z,4.39
2017-11-26T23:58:00.696Z,4.43
2017-11-26T23:59:10.178Z,4.47
